Terminal Aerodrome Forecast
Issued by NWS Paducah, KY

Home | Current Version | Previous Version | Graphics & Text | Print | Product List | Glossary On
Versions: 1 2 3 4 5 6 7 8 9 10 11 12 13 14 15 16 17 18 19 20
000
FTUS43 KPAH 211722
TAFEVV
TAF
KEVV 211722Z 2118/2218 36008KT P6SM -RA OVC011
     FM212300 02009KT 6SM -RA OVC008
     FM220300 03011KT 4SM -RA BR OVC008
     FM220900 02007KT 5SM BR OVC008
     FM221500 04005KT P6SM OVC009=

USA.gov is the U.S. government's official web portal to all federal, state and local government web resources and services.